Clarksburg, Indiana
Current Conditions -  °F | °C
As of 3:53 PM on Thursday 23 Oct 2014 (Local Time) from KGEZ Reporting Station
Clear Clear  
Wind Chill: 59°   Ceiling: Unl
Heat Index: 59°   Visibility: 10mi
Dew Point: 39°   Wind: 3mph
Humidity: 48%   Direction: 220°SW
Pressure: 30.14"   Gusts: NA
Location:  39.43°N, 85.35°W
Report Text: KGEZ 231953Z AUTO 22003KT 10SM CLR 15/04 A3014 RMK AO2 SLP209 T01500039
Loading
Personal Weather Stations






























Interactive Weather Map
Tropical Storm Tracking
New forecast layout! Learn more

10-Day Weather Forecast

Advertisements
Track Severe Weather on mobile